Time;durP1;ratioP1;P1;durP2;ratioP2;P2;SDS_P1;SDS_P2;PMS_P1;PMS_P2;Temp;Humidity;BMP_temperature;BMP_pressure;BME280_temperature;BME280_humidity;BME280_pressure;Samples;Min_cycle;Max_cycle;Signal;HPM_P1;HPM_P2
2021/08/15 00:00:49;;;;;;;7.75;4.32;;;25.80;58.00;;;;;;2292832;54;21484;-65
2021/08/15 00:03:15;;;;;;;5.53;3.90;;;25.80;58.10;;;;;;2293985;55;21768;-66
2021/08/15 00:05:41;;;;;;;7.00;3.90;;;25.70;58.00;;;;;;2303286;55;21739;-64
2021/08/15 00:08:08;;;;;;;6.28;3.78;;;25.70;58.10;;;;;;2291845;55;22023;-66
2021/08/15 00:10:37;;;;;;;6.47;3.35;;;25.70;58.10;;;;;;2294497;55;20948;-65
2021/08/15 00:13:04;;;;;;;6.05;3.65;;;25.60;58.10;;;;;;2434790;54;21066;-65
2021/08/15 00:15:30;;;;;;;5.85;4.12;;;25.60;58.10;;;;;;2301486;55;20995;-65
2021/08/15 00:17:56;;;;;;;5.95;4.00;;;25.60;58.20;;;;;;2291880;55;20975;-65
2021/08/15 00:20:24;;;;;;;7.53;4.18;;;25.60;58.10;;;;;;2303417;55;20971;-66
2021/08/15 00:22:52;;;;;;;7.90;3.95;;;25.50;58.10;;;;;;2288161;55;21091;-66
2021/08/15 00:25:18;;;;;;;6.25;4.00;;;25.50;58.10;;;;;;2293045;55;20987;-66
2021/08/15 00:27:45;;;;;;;5.72;3.67;;;25.40;58.10;;;;;;2292548;55;20943;-66
2021/08/15 00:30:14;;;;;;;6.37;3.90;;;25.40;58.10;;;;;;2539007;54;20960;-65
2021/08/15 00:32:44;;;;;;;7.30;3.25;;;25.40;58.20;;;;;;2303092;54;21039;-66
2021/08/15 00:35:10;;;;;;;5.55;3.65;;;25.30;58.20;;;;;;2301880;55;20970;-65
2021/08/15 00:37:36;;;;;;;5.82;3.78;;;25.30;58.30;;;;;;2297938;55;20983;-66
2021/08/15 00:40:04;;;;;;;5.50;3.62;;;25.20;58.30;;;;;;2294807;55;20955;-65
2021/08/15 00:42:30;;;;;;;5.72;4.12;;;25.20;58.50;;;;;;2404068;54;20958;-64
2021/08/15 00:44:57;;;;;;;6.28;4.43;;;25.20;58.60;;;;;;2288200;55;20983;-66
2021/08/15 00:47:24;;;;;;;7.55;4.10;;;25.20;58.70;;;;;;2293213;55;20951;-66
2021/08/15 00:49:50;;;;;;;5.82;3.70;;;25.10;58.70;;;;;;2297042;55;20971;-66
2021/08/15 00:52:17;;;;;;;5.50;3.90;;;25.10;58.80;;;;;;2292744;55;21039;-65
2021/08/15 00:54:44;;;;;;;6.45;3.67;;;25.00;58.80;;;;;;2294631;55;20991;-65
2021/08/15 00:57:10;;;;;;;5.78;3.83;;;25.00;58.90;;;;;;2318031;54;21003;-66
2021/08/15 00:59:39;;;;;;;6.22;3.85;;;25.00;59.00;;;;;;2378206;54;21563;-65
2021/08/15 01:02:07;;;;;;;4.60;3.15;;;25.00;59.00;;;;;;2297096;55;20987;-65
2021/08/15 01:04:35;;;;;;;5.78;3.42;;;25.00;59.00;;;;;;2293319;55;21515;-65
2021/08/15 01:07:03;;;;;;;5.75;3.62;;;25.00;59.00;;;;;;2293604;55;21854;-65
2021/08/15 01:09:29;;;;;;;4.62;3.17;;;24.90;58.90;;;;;;2295011;55;21800;-65
2021/08/15 01:11:55;;;;;;;5.07;3.10;;;24.90;59.00;;;;;;2296754;55;20984;-64
2021/08/15 01:14:21;;;;;;;6.32;3.42;;;24.90;59.00;;;;;;2295158;55;20979;-65
2021/08/15 01:16:47;;;;;;;5.25;3.62;;;24.80;59.00;;;;;;2338340;54;22452;-65
2021/08/15 01:19:14;;;;;;;7.25;4.03;;;24.80;59.00;;;;;;2306679;55;20933;-64
2021/08/15 01:21:49;;;;;;;5.37;3.75;;;24.80;59.10;;;;;;2294933;55;20959;-65
2021/08/15 01:24:19;;;;;;;5.93;3.90;;;24.80;59.30;;;;;;2335141;54;21059;-64
2021/08/15 01:26:46;;;;;;;6.65;3.90;;;24.80;59.20;;;;;;2296094;55;20931;-66
2021/08/15 01:29:12;;;;;;;5.40;3.50;;;24.80;59.30;;;;;;2289698;55;20981;-65
2021/08/15 01:31:38;;;;;;;5.30;3.37;;;24.70;59.20;;;;;;2296557;55;20979;-65
2021/08/15 01:34:04;;;;;;;5.53;3.35;;;24.70;59.30;;;;;;2295453;55;21430;-65
2021/08/15 01:36:31;;;;;;;6.18;3.40;;;24.70;59.30;;;;;;2303142;55;21052;-66
2021/08/15 01:38:57;;;;;;;5.50;3.53;;;24.70;59.30;;;;;;2323368;54;20947;-65
2021/08/15 01:41:27;;;;;;;5.93;2.92;;;24.60;59.30;;;;;;2297481;55;20967;-66
2021/08/15 01:43:58;;;;;;;4.75;3.20;;;24.60;59.30;;;;;;2294629;55;21028;-64
2021/08/15 01:46:26;;;;;;;5.45;3.60;;;24.60;59.50;;;;;;2296957;55;21036;-65
2021/08/15 01:48:53;;;;;;;6.32;3.72;;;24.50;59.40;;;;;;2281134;55;21021;-66
2021/08/15 01:51:22;;;;;;;6.50;3.37;;;24.50;60.00;;;;;;2293819;55;21103;-63
2021/08/15 01:53:51;;;;;;;5.82;3.15;;;24.50;59.50;;;;;;2303644;55;21076;-65
2021/08/15 01:56:17;;;;;;;5.75;3.70;;;24.50;59.50;;;;;;2298336;55;20993;-64
2021/08/15 01:58:44;;;;;;;5.62;3.95;;;24.50;59.50;;;;;;2520772;54;21546;-65
2021/08/15 02:01:14;;;;;;;5.57;3.65;;;24.40;59.50;;;;;;2294627;55;20983;-65
2021/08/15 02:03:41;;;;;;;5.87;4.32;;;24.40;59.60;;;;;;2283195;54;21039;-66
2021/08/15 02:06:09;;;;;;;8.77;4.20;;;24.40;59.60;;;;;;2299503;55;20988;-64
2021/08/15 02:08:35;;;;;;;7.45;4.10;;;24.30;59.60;;;;;;2288656;55;20967;-65
2021/08/15 02:11:01;;;;;;;4.68;3.55;;;24.30;59.60;;;;;;2300357;55;20931;-65
2021/08/15 02:13:28;;;;;;;6.62;3.65;;;24.30;59.70;;;;;;2310047;55;20931;-64
2021/08/15 02:15:54;;;;;;;6.82;3.70;;;24.20;59.70;;;;;;2298010;55;20935;-65
2021/08/15 02:18:20;;;;;;;5.40;3.58;;;24.20;59.70;;;;;;2522413;54;21089;-64
2021/08/15 02:20:47;;;;;;;5.75;3.62;;;24.20;59.80;;;;;;2293430;55;20999;-65
2021/08/15 02:23:13;;;;;;;5.57;3.62;;;24.20;59.90;;;;;;2532829;54;21034;-66
2021/08/15 02:25:39;;;;;;;5.85;3.83;;;24.10;59.90;;;;;;2293413;54;20931;-65
2021/08/15 02:28:08;;;;;;;5.65;3.22;;;24.10;59.90;;;;;;2302026;54;20966;-65
2021/08/15 02:30:35;;;;;;;5.47;3.65;;;24.10;60.00;;;;;;2285398;55;20935;-63
2021/08/15 02:33:01;;;;;;;5.12;3.53;;;24.10;60.00;;;;;;2292137;55;20971;-65
2021/08/15 02:35:31;;;;;;;5.93;4.00;;;24.10;60.00;;;;;;2294845;55;20975;-66
2021/08/15 02:38:00;;;;;;;5.62;3.50;;;24.10;60.10;;;;;;2300694;55;21455;-66
2021/08/15 02:40:27;;;;;;;5.82;4.00;;;24.10;60.20;;;;;;2278207;55;21060;-66
2021/08/15 02:42:53;;;;;;;5.25;3.45;;;24.00;60.20;;;;;;2285489;55;21051;-65
2021/08/15 02:45:23;;;;;;;4.70;3.22;;;24.00;60.20;;;;;;2296897;55;20950;-65
2021/08/15 02:47:49;;;;;;;5.35;3.45;;;24.00;60.40;;;;;;2294306;54;21875;-66
2021/08/15 02:50:16;;;;;;;4.62;3.00;;;24.00;60.30;;;;;;2303156;55;21008;-66
2021/08/15 02:52:42;;;;;;;4.95;3.25;;;23.90;60.20;;;;;;2514419;54;20971;-65
2021/08/15 02:55:09;;;;;;;5.60;3.17;;;23.90;60.20;;;;;;2277644;55;21374;-65
2021/08/15 02:57:38;;;;;;;5.43;3.62;;;23.90;60.40;;;;;;2288621;55;21051;-66
2021/08/15 03:00:07;;;;;;;5.32;3.58;;;23.90;60.50;;;;;;2290420;55;21424;-65
2021/08/15 03:02:33;;;;;;;5.12;3.47;;;23.90;60.60;;;;;;2403297;54;21023;-65
2021/08/15 03:04:59;;;;;;;5.57;3.30;;;23.90;60.60;;;;;;2296628;55;21033;-64
2021/08/15 03:07:26;;;;;;;5.40;4.22;;;23.90;60.70;;;;;;2532014;54;20959;-65
2021/08/15 03:09:53;;;;;;;6.28;4.82;;;23.90;61.00;;;;;;2436022;54;20983;-67
2021/08/15 03:12:20;;;;;;;6.00;3.85;;;23.90;61.30;;;;;;2276702;55;21006;-66
2021/08/15 03:14:46;;;;;;;5.20;3.92;;;23.80;61.20;;;;;;2289669;55;20954;-65
2021/08/15 03:17:12;;;;;;;6.30;3.83;;;23.90;61.40;;;;;;2293438;55;20947;-65
2021/08/15 03:19:39;;;;;;;5.47;3.30;;;23.90;61.40;;;;;;2298079;55;20991;-65
2021/08/15 03:22:05;;;;;;;5.78;3.20;;;23.90;61.40;;;;;;2308025;55;20930;-66
2021/08/15 03:24:32;;;;;;;4.97;3.30;;;23.80;61.40;;;;;;2308682;55;20927;-66
2021/08/15 03:27:07;;;;;;;4.70;3.05;;;23.90;61.40;;;;;;2311866;54;21406;-64
2021/08/15 03:29:33;;;;;;;5.43;3.30;;;23.80;61.70;;;;;;2307689;55;20974;-65
2021/08/15 03:31:59;;;;;;;4.78;3.28;;;23.80;61.40;;;;;;2307692;54;21019;-65
2021/08/15 03:34:25;;;;;;;5.25;3.28;;;23.80;61.30;;;;;;2312338;54;21051;-66
2021/08/15 03:36:52;;;;;;;4.65;3.22;;;23.80;61.30;;;;;;2295661;55;21058;-65
2021/08/15 03:39:19;;;;;;;5.78;3.45;;;23.80;61.20;;;;;;2315428;54;20978;-65
2021/08/15 03:41:46;;;;;;;6.30;4.07;;;23.80;61.20;;;;;;2306073;55;21507;-65
2021/08/15 03:44:14;;;;;;;5.43;3.53;;;23.80;61.10;;;;;;2295583;55;21572;-64
2021/08/15 03:46:41;;;;;;;6.70;4.15;;;23.80;61.10;;;;;;2288602;55;21646;-65
2021/08/15 03:49:11;;;;;;;7.12;4.57;;;23.80;61.30;;;;;;2305344;55;20975;-66
2021/08/15 03:51:37;;;;;;;6.15;4.00;;;23.80;61.40;;;;;;2293641;55;21059;-66
2021/08/15 03:54:03;;;;;;;5.68;3.87;;;23.70;61.30;;;;;;2295749;54;21078;-64
2021/08/15 03:56:30;;;;;;;6.90;3.72;;;23.70;61.40;;;;;;2283481;55;20999;-66
2021/08/15 03:58:56;;;;;;;5.47;4.22;;;23.70;61.50;;;;;;2289491;55;21585;-64
2021/08/15 04:01:22;;;;;;;7.32;4.87;;;23.70;61.50;;;;;;2309513;55;21818;-65
2021/08/15 04:03:49;;;;;;;7.80;4.62;;;23.60;61.70;;;;;;2290635;55;21019;-65
2021/08/15 04:06:21;;;;;;;6.35;4.15;;;23.60;61.80;;;;;;2300486;55;20935;-64
2021/08/15 04:08:53;;;;;;;7.03;4.07;;;23.60;61.80;;;;;;2293040;55;21100;-65
2021/08/15 04:11:19;;;;;;;6.25;4.22;;;23.60;61.80;;;;;;2300295;55;20968;-64
2021/08/15 04:13:46;;;;;;;5.05;3.60;;;23.60;61.70;;;;;;2294620;55;21011;-66
2021/08/15 04:16:12;;;;;;;5.68;4.07;;;23.70;61.90;;;;;;2293020;55;20987;-64
2021/08/15 04:18:39;;;;;;;6.15;4.07;;;23.60;61.80;;;;;;2294360;54;20950;-64
2021/08/15 04:21:06;;;;;;;8.70;4.28;;;23.60;61.80;;;;;;2291211;55;20952;-65
2021/08/15 04:23:34;;;;;;;6.00;3.90;;;23.50;61.70;;;;;;2298680;55;21006;-64
2021/08/15 04:26:00;;;;;;;5.82;3.92;;;23.50;61.80;;;;;;2342112;54;21028;-65
2021/08/15 04:28:27;;;;;;;6.47;4.37;;;23.50;61.70;;;;;;2292825;55;21098;-65
2021/08/15 04:30:53;;;;;;;5.30;3.62;;;23.50;61.80;;;;;;2291947;55;20947;-65
2021/08/15 04:33:21;;;;;;;4.60;3.20;;;23.50;61.90;;;;;;2302318;55;21010;-65
2021/08/15 04:35:47;;;;;;;5.68;3.80;;;23.50;61.90;;;;;;2295900;55;20959;-65
2021/08/15 04:38:13;;;;;;;5.53;3.55;;;23.40;61.90;;;;;;2293372;55;21018;-65
2021/08/15 04:40:40;;;;;;;5.05;3.20;;;23.50;62.10;;;;;;2295669;55;20987;-64
2021/08/15 04:43:06;;;;;;;5.85;3.87;;;23.40;62.10;;;;;;2292782;55;20955;-66
2021/08/15 04:45:32;;;;;;;6.60;3.85;;;23.40;62.10;;;;;;2300258;55;20995;-64
2021/08/15 04:47:59;;;;;;;6.68;4.32;;;23.40;62.20;;;;;;2296918;54;20964;-66
2021/08/15 04:50:25;;;;;;;6.20;4.12;;;23.40;62.20;;;;;;2301397;55;21009;-64
2021/08/15 04:52:51;;;;;;;6.25;3.80;;;23.40;62.20;;;;;;2294539;55;20947;-65
2021/08/15 04:55:18;;;;;;;5.22;3.33;;;23.40;62.20;;;;;;2295931;55;21294;-66
2021/08/15 04:57:45;;;;;;;5.43;3.87;;;23.50;62.40;;;;;;2288637;55;20939;-65
2021/08/15 05:00:12;;;;;;;5.28;3.47;;;23.40;62.40;;;;;;2289074;55;20943;-66
2021/08/15 05:02:42;;;;;;;5.28;3.78;;;23.50;62.50;;;;;;2514624;54;20956;-65
2021/08/15 05:05:09;;;;;;;5.18;3.67;;;23.50;62.60;;;;;;2291857;55;21630;-66
2021/08/15 05:07:35;;;;;;;5.50;3.30;;;23.50;62.70;;;;;;2292308;55;20959;-65
2021/08/15 05:10:01;;;;;;;6.78;4.25;;;23.50;62.70;;;;;;2288414;55;20951;-64
2021/08/15 05:12:27;;;;;;;5.53;3.53;;;23.50;62.70;;;;;;2306368;55;20935;-64
2021/08/15 05:14:54;;;;;;;7.25;4.25;;;23.50;62.80;;;;;;2395143;54;21808;-65
2021/08/15 05:17:20;;;;;;;6.30;4.28;;;23.50;63.00;;;;;;2295270;55;20971;-66
2021/08/15 05:19:47;;;;;;;7.43;4.15;;;23.50;63.00;;;;;;2516309;54;21039;-65
2021/08/15 05:22:13;;;;;;;7.05;4.35;;;23.50;63.10;;;;;;2292356;54;20956;-64
2021/08/15 05:24:39;;;;;;;6.12;4.43;;;23.50;63.10;;;;;;2299827;55;21059;-64
2021/08/15 05:27:06;;;;;;;6.35;3.83;;;23.50;63.10;;;;;;2291656;55;20944;-66
2021/08/15 05:29:32;;;;;;;6.78;4.47;;;23.50;63.10;;;;;;2411653;54;21015;-65
2021/08/15 05:31:58;;;;;;;8.73;4.97;;;23.50;63.20;;;;;;2293183;55;20988;-64
2021/08/15 05:34:24;;;;;;;8.90;5.20;;;23.60;63.40;;;;;;2301583;54;20979;-64
2021/08/15 05:36:50;;;;;;;6.30;3.70;;;23.60;63.50;;;;;;2413998;54;20946;-65
2021/08/15 05:39:17;;;;;;;7.37;4.68;;;23.60;63.50;;;;;;2291629;55;21007;-66
2021/08/15 05:41:43;;;;;;;7.10;4.50;;;23.60;63.60;;;;;;2294691;55;20999;-64
2021/08/15 05:44:09;;;;;;;7.62;4.35;;;23.70;63.80;;;;;;2304706;54;20945;-66
2021/08/15 05:46:36;;;;;;;7.15;4.95;;;23.70;63.90;;;;;;2291718;55;21161;-65
2021/08/15 05:49:06;;;;;;;7.12;5.03;;;23.70;63.90;;;;;;2359591;54;20983;-65
2021/08/15 05:51:32;;;;;;;7.10;5.43;;;23.70;64.10;;;;;;2298279;54;21583;-64
2021/08/15 05:53:58;;;;;;;8.20;5.62;;;23.80;64.00;;;;;;2283247;55;21031;-64
2021/08/15 05:56:24;;;;;;;7.47;5.50;;;23.80;64.10;;;;;;2294048;55;21541;-65
2021/08/15 05:58:51;;;;;;;7.15;5.25;;;23.80;64.20;;;;;;2293552;54;20963;-66
2021/08/15 06:01:17;;;;;;;7.20;5.12;;;23.80;64.20;;;;;;2292960;54;21002;-65
2021/08/15 06:03:47;;;;;;;6.75;4.97;;;23.90;64.20;;;;;;2297629;55;20996;-65
2021/08/15 06:06:14;;;;;;;6.72;4.90;;;23.90;64.20;;;;;;2301573;55;21435;-65
2021/08/15 06:08:41;;;;;;;6.15;4.43;;;23.90;64.20;;;;;;2296350;54;20975;-65
2021/08/15 06:11:07;;;;;;;7.95;5.32;;;24.00;64.30;;;;;;2293201;55;21547;-66
2021/08/15 06:13:34;;;;;;;7.57;4.97;;;24.00;64.30;;;;;;2295579;55;20947;-65
2021/08/15 06:16:00;;;;;;;7.45;5.25;;;24.10;64.30;;;;;;2285900;55;21034;-66
2021/08/15 06:18:26;;;;;;;6.60;4.72;;;24.10;64.20;;;;;;2292447;55;21003;-65
2021/08/15 06:20:55;;;;;;;6.75;4.93;;;24.10;64.20;;;;;;2292245;55;21523;-66
2021/08/15 06:23:22;;;;;;;6.55;4.30;;;24.10;64.30;;;;;;2519305;54;20987;-65
2021/08/15 06:25:49;;;;;;;7.10;5.03;;;24.20;64.40;;;;;;2286496;55;20984;-65
2021/08/15 06:28:16;;;;;;;7.93;5.07;;;24.20;64.50;;;;;;2295843;55;21542;-65
2021/08/15 06:30:42;;;;;;;7.40;5.35;;;24.30;64.50;;;;;;2294659;55;21042;-66
2021/08/15 06:33:10;;;;;;;7.87;4.95;;;24.30;64.50;;;;;;2292918;55;21016;-65
2021/08/15 06:35:37;;;;;;;7.93;5.53;;;24.30;64.50;;;;;;2294221;55;20999;-64
2021/08/15 06:38:03;;;;;;;7.10;4.93;;;24.40;64.50;;;;;;2296596;55;21261;-65
2021/08/15 06:40:29;;;;;;;7.22;4.68;;;24.40;64.30;;;;;;2294394;55;21034;-65
2021/08/15 06:43:08;;;;;;;6.85;4.90;;;24.50;64.30;;;;;;2303815;54;21465;-66
2021/08/15 06:45:35;;;;;;;5.70;4.00;;;24.50;64.50;;;;;;2293592;55;21051;-67
2021/08/15 06:48:02;;;;;;;6.87;4.97;;;24.60;64.40;;;;;;2294736;55;20963;-67
2021/08/15 06:50:28;;;;;;;6.75;4.97;;;24.60;64.50;;;;;;2293628;55;21003;-66
2021/08/15 06:52:54;;;;;;;7.62;5.37;;;24.60;64.50;;;;;;2521285;54;21019;-67
2021/08/15 06:55:21;;;;;;;6.70;4.78;;;24.70;64.70;;;;;;2295419;55;21888;-67
2021/08/15 06:57:47;;;;;;;9.85;5.15;;;24.70;64.70;;;;;;2295609;54;20979;-66
2021/08/15 07:00:14;;;;;;;8.48;5.72;;;24.80;64.80;;;;;;2311315;55;21023;-66
2021/08/15 07:02:42;;;;;;;9.68;5.55;;;24.90;64.90;;;;;;2294823;54;21039;-69
2021/08/15 07:05:09;;;;;;;7.57;5.65;;;24.90;65.00;;;;;;2408422;54;21754;-65
2021/08/15 07:07:35;;;;;;;7.57;4.97;;;25.00;65.10;;;;;;2294108;55;20999;-74
2021/08/15 07:10:04;;;;;;;9.00;5.45;;;25.10;65.20;;;;;;2396597;54;21107;-74
2021/08/15 07:12:30;;;;;;;10.32;6.05;;;25.20;65.30;;;;;;2362886;54;20971;-74
2021/08/15 07:14:57;;;;;;;8.48;6.22;;;25.30;65.30;;;;;;2294474;55;21143;-72
2021/08/15 07:17:25;;;;;;;7.50;5.65;;;25.30;65.10;;;;;;2307426;54;20976;-74
2021/08/15 07:19:51;;;;;;;7.22;5.05;;;25.40;64.90;;;;;;2367333;54;21015;-71
2021/08/15 07:22:17;;;;;;;6.80;5.03;;;25.50;64.80;;;;;;2299982;54;20985;-70
2021/08/15 07:24:43;;;;;;;7.82;5.37;;;25.50;64.70;;;;;;2290622;55;21056;-70
2021/08/15 07:27:10;;;;;;;6.55;5.12;;;25.60;64.70;;;;;;2293844;55;21003;-65
2021/08/15 07:29:37;;;;;;;7.65;5.55;;;25.60;64.60;;;;;;2334859;54;21010;-73
2021/08/15 07:32:04;;;;;;;7.93;5.25;;;25.70;64.40;;;;;;2301361;55;22242;-69
2021/08/15 07:34:30;;;;;;;8.63;6.07;;;25.70;64.30;;;;;;2288811;55;21491;-73
2021/08/15 07:36:57;;;;;;;7.80;6.03;;;25.80;64.30;;;;;;2299131;54;21122;-72
2021/08/15 07:39:23;;;;;;;7.37;5.50;;;25.80;64.20;;;;;;2292077;55;21039;-69
2021/08/15 07:41:52;;;;;;;7.45;5.57;;;25.90;64.30;;;;;;2313956;54;20947;-68
2021/08/15 07:44:20;;;;;;;7.40;5.57;;;25.90;64.40;;;;;;2413281;54;21815;-73
2021/08/15 07:46:46;;;;;;;7.95;5.72;;;26.00;64.70;;;;;;2292463;55;21150;-69
2021/08/15 07:49:13;;;;;;;6.68;5.20;;;26.10;64.90;;;;;;2291123;55;21857;-75
2021/08/15 07:51:41;;;;;;;7.37;5.85;;;26.20;64.80;;;;;;2522387;54;20952;-66
2021/08/15 07:54:08;;;;;;;7.60;5.95;;;26.30;64.70;;;;;;2300549;55;21531;-74
2021/08/15 07:56:35;;;;;;;7.82;5.62;;;26.40;64.60;;;;;;2295188;55;21552;-71
2021/08/15 07:59:01;;;;;;;8.18;6.25;;;26.50;64.50;;;;;;2288670;55;20974;-71
2021/08/15 08:01:30;;;;;;;7.22;5.37;;;26.60;64.50;;;;;;2293716;55;21027;-68
2021/08/15 08:03:57;;;;;;;9.57;6.03;;;26.70;64.40;;;;;;2298347;55;21050;-69
2021/08/15 08:06:23;;;;;;;9.10;6.75;;;26.70;64.10;;;;;;2292957;54;21680;-69
2021/08/15 08:08:50;;;;;;;9.75;6.35;;;26.80;64.00;;;;;;2522731;54;20963;-69
2021/08/15 08:11:19;;;;;;;7.90;6.05;;;26.90;63.80;;;;;;2294000;54;21882;-68
2021/08/15 08:13:47;;;;;;;7.75;5.57;;;27.00;63.60;;;;;;2402108;54;21367;-66
2021/08/15 08:16:14;;;;;;;9.45;6.12;;;27.00;63.40;;;;;;2293339;55;21043;-66
2021/08/15 08:18:41;;;;;;;8.15;5.72;;;27.10;63.40;;;;;;2297063;55;21392;-67
2021/08/15 08:21:07;;;;;;;8.85;5.43;;;27.10;63.30;;;;;;2299358;54;21778;-67
2021/08/15 08:23:34;;;;;;;8.43;5.40;;;27.10;63.40;;;;;;2425232;54;21516;-67
2021/08/15 08:26:00;;;;;;;7.53;5.43;;;27.20;63.60;;;;;;2305428;55;21019;-66
2021/08/15 08:28:28;;;;;;;8.00;5.55;;;27.30;63.60;;;;;;2443678;54;21067;-66
2021/08/15 08:30:55;;;;;;;6.75;5.18;;;27.30;63.50;;;;;;2294347;55;20987;-66
2021/08/15 08:33:21;;;;;;;8.80;6.18;;;27.40;63.30;;;;;;2521140;54;21361;-68
2021/08/15 08:35:47;;;;;;;9.00;5.55;;;27.50;63.40;;;;;;2489454;54;21003;-68
2021/08/15 08:38:14;;;;;;;7.60;6.00;;;27.50;63.10;;;;;;2294253;54;20983;-70
2021/08/15 08:40:42;;;;;;;8.57;6.47;;;27.60;62.90;;;;;;2290157;55;21051;-70
2021/08/15 08:43:08;;;;;;;7.68;5.30;;;27.70;62.60;;;;;;2302240;54;20946;-68
2021/08/15 08:45:39;;;;;;;9.13;5.87;;;27.70;62.40;;;;;;2300833;55;21027;-68
2021/08/15 08:48:06;;;;;;;6.20;5.03;;;27.70;62.30;;;;;;2287132;55;21801;-69
2021/08/15 08:50:32;;;;;;;6.68;5.37;;;27.80;62.20;;;;;;2294913;54;20984;-73
2021/08/15 08:52:59;;;;;;;7.20;5.07;;;27.80;62.00;;;;;;2297462;54;20988;-67
2021/08/15 08:55:25;;;;;;;6.78;4.85;;;27.80;61.90;;;;;;2378471;54;20960;-71
2021/08/15 08:57:51;;;;;;;7.35;5.50;;;27.80;61.90;;;;;;2523922;54;21411;-73
2021/08/15 09:00:18;;;;;;;8.13;6.10;;;27.90;62.00;;;;;;2297979;55;20983;-72
2021/08/15 09:02:47;;;;;;;10.68;5.40;;;27.90;61.90;;;;;;2300347;54;20953;-68
2021/08/15 09:05:17;;;;;;;7.35;4.90;;;28.00;62.10;;;;;;2432865;54;21019;-68
2021/08/15 09:07:43;;;;;;;7.80;5.35;;;28.10;62.10;;;;;;2294010;55;21071;-71
2021/08/15 09:10:11;;;;;;;8.82;5.70;;;28.10;61.90;;;;;;2294013;55;21422;-73
2021/08/15 09:12:48;;;;;;;7.50;5.10;;;28.20;61.80;;;;;;2341159;54;21006;-70
2021/08/15 09:15:21;;;;;;;8.07;4.82;;;28.30;61.90;;;;;;2290757;55;21022;-68
2021/08/15 09:17:48;;;;;;;7.10;4.90;;;28.40;61.80;;;;;;2275786;55;21032;-67
2021/08/15 09:20:21;;;;;;;7.72;5.07;;;28.40;61.60;;;;;;2362243;54;21019;-67
2021/08/15 09:22:47;;;;;;;7.53;5.00;;;28.50;61.50;;;;;;2294176;55;21030;-65
2021/08/15 09:25:21;;;;;;;8.18;5.35;;;28.50;61.40;;;;;;2301560;55;21047;-71
2021/08/15 09:27:52;;;;;;;7.50;5.20;;;28.60;61.30;;;;;;2523067;54;25640;-66
2021/08/15 09:30:28;;;;;;;6.90;5.20;;;28.70;61.20;;;;;;2295083;54;21007;-68
2021/08/15 09:33:17;;;;;;;7.82;5.37;;;28.80;60.90;;;;;;2299051;55;20971;-68
2021/08/15 09:35:43;;;;;;;6.53;4.72;;;28.80;60.50;;;;;;2285365;55;20956;-67
2021/08/15 09:38:12;;;;;;;5.70;4.30;;;28.90;60.70;;;;;;2286384;54;21552;-69
2021/08/15 09:40:49;;;;;;;8.05;5.12;;;28.90;60.70;;;;;;2300677;55;21067;-67
2021/08/15 09:43:25;;;;;;;6.82;4.78;;;29.10;60.50;;;;;;2293480;55;20999;-70
2021/08/15 09:46:01;;;;;;;6.97;4.37;;;29.10;60.20;;;;;;2297181;55;21039;-65
2021/08/15 09:48:40;;;;;;;6.85;4.90;;;29.20;59.80;;;;;;2384390;54;20987;-70
2021/08/15 09:51:24;;;;;;;6.50;4.50;;;29.30;59.80;;;;;;2294363;55;20983;-67
2021/08/15 09:54:10;;;;;;;6.90;4.35;;;29.40;59.70;;;;;;2295435;55;20967;-68
2021/08/15 09:56:39;;;;;;;6.22;4.62;;;29.40;59.40;;;;;;2333788;54;21823;-66
2021/08/15 09:59:39;;;;;;;5.57;4.20;;;29.50;59.30;;;;;;2289854;55;20971;-69
2021/08/15 10:02:07;;;;;;;6.12;4.12;;;29.50;59.10;;;;;;2295784;55;21039;-70
2021/08/15 10:04:35;;;;;;;7.65;4.87;;;29.60;59.20;;;;;;2275214;55;21798;-67
2021/08/15 10:07:01;;;;;;;6.50;4.80;;;29.60;59.00;;;;;;2297867;55;20960;-68
2021/08/15 10:09:28;;;;;;;6.43;4.45;;;29.60;58.90;;;;;;2293299;55;21040;-66
2021/08/15 10:11:54;;;;;;;6.60;4.30;;;29.70;58.90;;;;;;2274576;55;20999;-69
2021/08/15 10:14:20;;;;;;;7.10;4.72;;;29.70;58.80;;;;;;2292245;55;20991;-66
2021/08/15 10:16:58;;;;;;;7.18;4.80;;;29.70;58.80;;;;;;2291313;55;21050;-67
2021/08/15 10:19:56;;;;;;;6.85;4.80;;;29.80;58.50;;;;;;2291101;55;20927;-66
2021/08/15 10:22:24;;;;;;;6.07;4.40;;;29.90;58.50;;;;;;2297039;55;20976;-71
2021/08/15 10:24:54;;;;;;;5.82;4.62;;;29.90;58.70;;;;;;2526899;54;21068;-67
2021/08/15 10:27:48;;;;;;;6.97;4.47;;;30.00;58.60;;;;;;2294980;55;20999;-67
2021/08/15 10:30:59;;;;;;;5.07;4.05;;;30.00;58.00;;;;;;2294455;55;20954;-68
2021/08/15 10:33:27;;;;;;;6.55;4.35;;;30.10;58.10;;;;;;2519779;54;21567;-67
2021/08/15 10:36:18;;;;;;;6.80;4.72;;;30.10;58.20;;;;;;2294472;55;21527;-67
2021/08/15 10:38:44;;;;;;;6.35;4.18;;;30.20;57.90;;;;;;2273786;55;21005;-70
2021/08/15 10:41:11;;;;;;;5.90;4.72;;;30.30;58.20;;;;;;2293635;55;20979;-66
2021/08/15 10:44:22;;;;;;;5.95;4.60;;;30.30;58.00;;;;;;2301717;55;20924;-67
2021/08/15 10:47:13;;;;;;;5.45;4.30;;;30.40;57.60;;;;;;2307490;55;21048;-67
2021/08/15 10:49:50;;;;;;;7.85;4.70;;;30.40;57.70;;;;;;2298811;55;21027;-70
2021/08/15 10:52:34;;;;;;;7.05;4.70;;;30.50;57.50;;;;;;2300200;55;21057;-68
2021/08/15 10:55:01;;;;;;;7.00;4.90;;;30.50;57.50;;;;;;2275686;55;21874;-66
2021/08/15 10:57:40;;;;;;;8.07;4.80;;;30.60;57.50;;;;;;2300898;54;22023;-67
2021/08/15 11:00:58;;;;;;;7.15;4.45;;;30.70;57.40;;;;;;2297222;54;21007;-69
2021/08/15 11:03:33;;;;;;;5.62;3.75;;;30.80;57.20;;;;;;2293067;55;20989;-69
2021/08/15 11:06:02;;;;;;;5.53;4.25;;;30.80;57.00;;;;;;2520658;54;21837;-73
2021/08/15 11:09:05;;;;;;;5.85;4.12;;;30.90;57.20;;;;;;2292504;55;20979;-70
2021/08/15 11:11:33;;;;;;;6.25;4.37;;;31.00;56.70;;;;;;2302576;54;21051;-67
2021/08/15 11:20:49;;;;;;;6.20;4.20;;;31.00;56.80;;;;;;2296732;54;21050;-67
2021/08/15 11:23:17;;;;;;;5.47;3.05;;;31.30;56.50;;;;;;2521301;54;21813;-71
2021/08/15 11:25:44;;;;;;;4.90;3.37;;;31.30;56.20;;;;;;2294575;55;20951;-67
2021/08/15 11:28:10;;;;;;;5.37;3.60;;;31.20;56.10;;;;;;2292818;55;20979;-67
2021/08/15 11:30:37;;;;;;;7.60;4.28;;;31.20;56.10;;;;;;2521500;54;20988;-71
2021/08/15 11:33:07;;;;;;;6.47;4.35;;;31.30;56.10;;;;;;2288620;55;20999;-74
2021/08/15 11:35:46;;;;;;;5.50;3.95;;;31.30;56.00;;;;;;2301977;55;21467;-70
2021/08/15 11:38:13;;;;;;;5.80;3.97;;;31.40;55.90;;;;;;2294388;54;20932;-69
2021/08/15 11:40:53;;;;;;;5.45;4.18;;;31.40;55.90;;;;;;2294557;55;20919;-70
2021/08/15 11:43:24;;;;;;;;;;;31.40;55.30;;;;;;2296525;55;20958;-70
2021/08/15 11:45:56;;;;;;;6.37;3.95;;;31.50;55.60;;;;;;2298258;55;20100;-69
2021/08/15 11:48:27;;;;;;;6.37;3.90;;;31.60;55.70;;;;;;2300390;55;20979;-68
2021/08/15 11:50:58;;;;;;;5.68;3.97;;;31.60;55.70;;;;;;2292004;55;21039;-68
2021/08/15 11:53:30;;;;;;;5.80;3.70;;;31.70;55.60;;;;;;2297294;55;20959;-69
2021/08/15 11:55:59;;;;;;;5.43;4.13;;;31.70;55.70;;;;;;2416374;54;21554;-68
2021/08/15 11:58:25;;;;;;;4.95;3.42;;;31.80;55.60;;;;;;2295926;55;21003;-68
2021/08/15 12:00:51;;;;;;;4.90;3.65;;;31.90;55.50;;;;;;2291920;55;21007;-69
2021/08/15 12:03:19;;;;;;;5.95;3.92;;;32.00;55.40;;;;;;2497368;54;21058;-68
2021/08/15 12:06:01;;;;;;;5.37;3.78;;;32.00;55.00;;;;;;2294772;55;20999;-70
2021/08/15 12:09:00;;;;;;;6.03;3.72;;;32.10;54.80;;;;;;2296955;55;21051;-70
2021/08/15 12:11:34;;;;;;;4.18;2.87;;;32.30;54.70;;;;;;2299895;55;20971;-68
2021/08/15 12:14:13;;;;;;;4.90;3.10;;;32.30;54.80;;;;;;2295981;55;21020;-67
2021/08/15 12:17:01;;;;;;;7.25;3.87;;;32.40;54.10;;;;;;2309379;54;20971;-71
2021/08/15 12:19:29;;;;;;;5.30;3.67;;;32.50;53.70;;;;;;2292729;55;20931;-69
2021/08/15 12:22:00;;;;;;;5.18;3.42;;;32.50;54.00;;;;;;2295606;55;21051;-69
2021/08/15 12:24:31;;;;;;;5.85;3.85;;;32.60;53.80;;;;;;2295655;54;21047;-70
2021/08/15 12:27:08;;;;;;;7.65;4.35;;;32.60;53.60;;;;;;2278922;55;20964;-74
2021/08/15 12:29:39;;;;;;;6.00;3.78;;;32.70;53.70;;;;;;2276161;55;21255;-72
2021/08/15 12:32:14;;;;;;;5.47;3.78;;;32.70;53.60;;;;;;2298123;54;21471;-74
2021/08/15 12:34:42;;;;;;;6.53;3.80;;;32.80;53.10;;;;;;2297349;55;21035;-70
2021/08/15 12:37:14;;;;;;;5.22;3.55;;;32.80;53.30;;;;;;2293850;54;21023;-69
2021/08/15 12:39:43;;;;;;;5.07;3.17;;;32.80;53.30;;;;;;2286070;55;21043;-68
2021/08/15 12:42:14;;;;;;;4.82;3.55;;;32.80;53.20;;;;;;2293179;55;21032;-68
2021/08/15 12:45:53;;;;;;;6.57;3.80;;;32.90;53.40;;;;;;2299015;54;20967;-66
2021/08/15 12:48:29;;;;;;;5.05;3.58;;;33.00;52.90;;;;;;2299824;54;20971;-69
2021/08/15 12:50:57;;;;;;;6.62;3.53;;;33.10;52.80;;;;;;2314576;54;20951;-71
2021/08/15 12:53:29;;;;;;;5.97;3.72;;;33.10;53.10;;;;;;2380641;54;21043;-69
2021/08/15 12:55:56;;;;;;;6.15;3.33;;;33.20;53.10;;;;;;2340698;54;21035;-72
2021/08/15 12:58:23;;;;;;;4.78;3.20;;;33.20;53.30;;;;;;2300608;54;20987;-75
2021/08/15 13:00:51;;;;;;;4.50;3.35;;;33.30;53.40;;;;;;2295723;55;20975;-71
2021/08/15 13:03:19;;;;;;;5.28;2.95;;;33.40;53.00;;;;;;2294889;55;20955;-70
2021/08/15 13:05:46;;;;;;;5.68;3.53;;;33.50;53.10;;;;;;2295363;55;20963;-68